Frimley, United Kingdom
Current Conditions -  °F | °C
As of 3:20 PM on Friday 19 Dec 2014 (Local Time) from EGLF Reporting Station
Few Clouds Few Clouds  
Wind Chill: 41°   Ceiling: Unl
Heat Index: 46°   Visibility: 6mi
Dew Point: 36°   Wind: 10mph
Humidity: 66%   Direction: 270°W
Pressure: 30.06"   Gusts: 23mph
Location:  51.31°N, 0.74°W
Report Text: EGLF 191520Z 27009G20KT 240V320 9999 FEW042 08/02 Q1018
Loading
Personal Weather Stations






























Interactive Weather Map New forecast layout! Learn more

10-Day Weather Forecast

Advertisements
Track Severe Weather on mobile